createdAt,value
2022-08-27T00:03:09.245Z,23.97
2022-08-27T00:08:14.063Z,23.40
2022-08-27T00:13:16.759Z,22.67
2022-08-27T00:18:22.557Z,22.39
2022-08-27T00:23:25.667Z,22.01
2022-08-27T00:28:30.686Z,21.83
2022-08-27T00:33:33.584Z,21.46
2022-08-27T00:38:38.558Z,21.65
2022-08-27T00:43:50.757Z,22.59
2022-08-27T00:48:57.036Z,22.54
2022-08-27T00:54:00.423Z,22.22
2022-08-27T00:59:03.758Z,22.27
2022-08-27T01:04:06.657Z,23.05
2022-08-27T01:09:13.963Z,23.64
2022-08-27T01:14:18.007Z,22.72
2022-08-27T01:19:35.182Z,22.25
2022-08-27T01:24:45.636Z,21.68
2022-08-27T01:29:49.295Z,21.31
2022-08-27T01:34:52.904Z,21.65
2022-08-27T01:39:59.057Z,22.25
2022-08-27T01:45:18.166Z,22.71
2022-08-27T01:50:31.257Z,22.43
2022-08-27T01:55:33.843Z,22.27
2022-08-27T02:00:39.678Z,22.39
2022-08-27T02:05:44.946Z,23.29
2022-08-27T02:10:49.051Z,23.38
2022-08-27T02:15:51.913Z,23.81
2022-08-27T02:20:54.550Z,23.92
2022-08-27T02:25:57.322Z,23.30
2022-08-27T02:31:00.892Z,21.93
2022-08-27T02:36:04.213Z,21.32
2022-08-27T02:41:08.770Z,21.36
2022-08-27T02:46:12.172Z,22.08
2022-08-27T02:51:14.832Z,22.63
2022-08-27T02:56:21.677Z,22.64
2022-08-27T03:01:24.660Z,21.88
2022-08-27T03:06:27.379Z,21.41
2022-08-27T03:11:31.992Z,22.09
2022-08-27T03:16:36.666Z,22.57
2022-08-27T03:21:39.196Z,22.27
2022-08-27T03:26:41.791Z,21.47
2022-08-27T03:31:55.633Z,21.60
2022-08-27T03:37:00.370Z,21.57
2022-08-27T03:42:03.044Z,21.05
2022-08-27T03:47:05.630Z,20.73
2022-08-27T03:52:09.052Z,20.50
2022-08-27T03:57:12.258Z,20.35
2022-08-27T04:02:16.388Z,20.28
2022-08-27T04:07:19.279Z,21.75
2022-08-27T04:12:21.781Z,22.33
2022-08-27T04:17:24.523Z,21.38
2022-08-27T04:22:28.088Z,21.18
2022-08-27T04:27:32.071Z,20.59
2022-08-27T04:32:37.063Z,21.02
2022-08-27T04:37:40.405Z,21.10
2022-08-27T04:42:42.966Z,21.80
2022-08-27T04:47:45.466Z,22.73
2022-08-27T04:52:48.068Z,22.72
2022-08-27T04:57:52.449Z,22.44
2022-08-27T05:02:55.326Z,23.31
2022-08-27T05:07:58.333Z,23.75
2022-08-27T05:13:00.931Z,23.82
2022-08-27T05:18:04.036Z,23.58
2022-08-27T05:23:06.615Z,23.77
2022-08-27T05:28:10.777Z,24.07
2022-08-27T05:33:15.536Z,24.30
2022-08-27T05:38:18.900Z,24.17
2022-08-27T05:43:21.378Z,24.30
2022-08-27T05:48:23.907Z,24.36
2022-08-27T05:53:26.732Z,24.30
2022-08-27T05:58:47.703Z,23.89
2022-08-27T06:03:52.824Z,24.49
2022-08-27T06:08:55.911Z,24.60
2022-08-27T06:13:58.630Z,24.82
2022-08-27T06:19:01.160Z,24.89
2022-08-27T06:24:03.851Z,25.02
2022-08-27T06:29:07.912Z,24.89
2022-08-27T06:34:11.429Z,24.68
2022-08-27T06:39:17.091Z,23.15
2022-08-27T06:44:21.588Z,23.91
2022-08-27T06:49:24.221Z,24.62
2022-08-27T06:54:27.230Z,24.96
2022-08-27T06:59:30.432Z,25.23
2022-08-27T07:04:33.091Z,25.36
2022-08-27T07:09:35.848Z,25.41
2022-08-27T07:14:38.617Z,25.50
2022-08-27T07:19:41.568Z,25.56
2022-08-27T07:24:44.245Z,25.51
2022-08-27T07:29:46.890Z,25.35
2022-08-27T07:34:49.937Z,25.34
2022-08-27T07:39:52.590Z,25.34
2022-08-27T07:44:55.226Z,25.23
2022-08-27T07:49:58.808Z,25.37
2022-08-27T07:55:01.607Z,25.52
2022-08-27T08:00:06.155Z,25.69
2022-08-27T08:05:16.740Z,25.73
2022-08-27T08:10:23.436Z,25.70
2022-08-27T08:15:26.145Z,25.64
2022-08-27T08:20:56.507Z,25.55
2022-08-27T08:25:51.899Z,25.56
2022-08-27T08:30:55.766Z,25.45
2022-08-27T08:36:10.814Z,25.21
2022-08-27T08:41:43.621Z,25.28
2022-08-27T08:46:56.801Z,25.28
2022-08-27T08:52:19.243Z,25.32
2022-08-27T08:57:40.862Z,25.40
2022-08-27T09:02:50.591Z,25.52
2022-08-27T09:13:46.704Z,25.65
2022-08-27T09:18:52.434Z,25.62
2022-08-27T09:24:07.264Z,25.59
2022-08-27T09:29:16.100Z,25.49
2022-08-27T09:34:18.689Z,25.54
2022-08-27T09:39:34.377Z,25.55
2022-08-27T09:44:52.995Z,25.52
2022-08-27T09:50:10.012Z,25.62
2022-08-27T09:55:12.802Z,25.74
2022-08-27T10:00:17.244Z,25.73
2022-08-27T10:05:38.636Z,25.74
2022-08-27T10:10:49.677Z,25.73
2022-08-27T10:16:15.214Z,25.63
2022-08-27T10:21:20.528Z,25.69
2022-08-27T10:26:38.799Z,25.95
2022-08-27T10:32:10.606Z,26.07
2022-08-27T10:37:45.817Z,26.30
2022-08-27T10:43:09.813Z,26.24
2022-08-27T10:48:31.146Z,25.85
2022-08-27T10:53:44.219Z,25.89
2022-08-27T10:59:24.394Z,25.81
2022-08-27T11:04:35.876Z,25.85
2022-08-27T11:09:54.920Z,25.77
2022-08-27T11:15:22.236Z,25.90
2022-08-27T11:20:35.044Z,25.83
2022-08-27T11:26:07.637Z,25.79
2022-08-27T11:31:35.437Z,25.72
2022-08-27T11:36:47.618Z,25.75
2022-08-27T11:42:05.744Z,25.89
2022-08-27T11:47:18.563Z,25.50
2022-08-27T11:52:29.318Z,25.63
2022-08-27T11:57:34.744Z,25.60
2022-08-27T12:02:37.649Z,24.96
2022-08-27T12:07:45.240Z,24.86
2022-08-27T12:13:02.794Z,25.24
2022-08-27T12:18:36.776Z,25.38
2022-08-27T12:23:45.249Z,25.57
2022-08-27T12:28:47.786Z,25.58
2022-08-27T12:33:55.004Z,25.70
2022-08-27T12:39:02.893Z,25.21
2022-08-27T12:44:07.730Z,25.40
2022-08-27T12:49:38.145Z,25.69
2022-08-27T12:54:55.072Z,25.45
2022-08-27T13:00:15.570Z,25.32
2022-08-27T13:05:22.878Z,25.29
2022-08-27T13:10:29.490Z,25.79
2022-08-27T13:15:34.226Z,25.83
2022-08-27T13:20:39.055Z,25.83
2022-08-27T13:25:41.812Z,25.68
2022-08-27T13:30:47.433Z,24.99
2022-08-27T13:35:50.999Z,25.70
2022-08-27T13:41:08.410Z,27.51
2022-08-27T13:46:15.699Z,28.06
2022-08-27T13:51:32.998Z,27.16
2022-08-27T13:57:03.713Z,28.59
2022-08-27T14:02:12.692Z,27.60
2022-08-27T14:07:21.167Z,27.19
2022-08-27T14:12:33.817Z,27.25
2022-08-27T14:17:38.347Z,27.03
2022-08-27T14:22:40.875Z,27.15
2022-08-27T14:27:52.891Z,27.61
2022-08-27T14:33:01.060Z,27.63
2022-08-27T14:38:23.957Z,27.26
2022-08-27T14:43:26.935Z,27.16
2022-08-27T14:48:32.491Z,26.97
2022-08-27T14:53:35.079Z,26.80
2022-08-27T14:58:37.781Z,26.70
2022-08-27T15:03:49.855Z,26.61
2022-08-27T15:08:53.184Z,26.61
2022-08-27T15:13:58.661Z,26.57
2022-08-27T15:19:02.274Z,26.48
2022-08-27T15:24:13.184Z,26.38
2022-08-27T15:29:16.397Z,26.35
2022-08-27T15:34:19.058Z,26.36
2022-08-27T15:39:21.560Z,26.32
2022-08-27T15:44:24.041Z,26.28
2022-08-27T15:49:26.631Z,26.22
2022-08-27T15:54:29.688Z,26.21
2022-08-27T15:59:33.241Z,26.17
2022-08-27T16:04:36.619Z,26.13
2022-08-27T16:09:39.722Z,25.74
2022-08-27T16:14:42.292Z,25.92
2022-08-27T16:19:44.940Z,26.05
2022-08-27T16:24:47.532Z,26.01
2022-08-27T16:29:51.073Z,26.02
2022-08-27T16:34:55.803Z,26.02
2022-08-27T16:39:58.995Z,25.99
2022-08-27T16:45:03.484Z,26.03
2022-08-27T16:50:26.317Z,26.08
2022-08-27T16:55:32.585Z,26.02
2022-08-27T17:00:38.897Z,25.90
2022-08-27T17:05:41.369Z,25.81
2022-08-27T17:10:47.576Z,25.69
2022-08-27T17:15:53.059Z,25.64
2022-08-27T17:20:57.471Z,25.56
2022-08-27T17:26:00.759Z,25.42
2022-08-27T17:31:03.475Z,24.96
2022-08-27T17:36:08.041Z,25.15
2022-08-27T17:41:13.521Z,24.89
2022-08-27T17:46:16.208Z,24.23
2022-08-27T17:51:21.041Z,23.89
2022-08-27T17:56:24.024Z,24.04
2022-08-27T18:01:32.468Z,23.84
2022-08-27T18:06:35.455Z,22.99
2022-08-27T18:11:39.865Z,23.14
2022-08-27T18:16:42.425Z,23.49
2022-08-27T18:21:46.489Z,23.72
2022-08-27T18:26:49.760Z,23.55
2022-08-27T18:31:52.458Z,22.63
2022-08-27T18:36:54.978Z,21.88
2022-08-27T18:41:57.584Z,21.58
2022-08-27T18:47:00.138Z,21.47
2022-08-27T18:52:03.253Z,22.37
2022-08-27T18:57:05.867Z,22.60
2022-08-27T19:02:17.955Z,22.76
2022-08-27T19:07:21.580Z,23.09
2022-08-27T19:12:24.397Z,23.81
2022-08-27T19:17:33.348Z,23.28
2022-08-27T19:22:36.035Z,22.92
2022-08-27T19:27:38.748Z,23.36
2022-08-27T19:32:41.309Z,23.34
2022-08-27T19:37:52.996Z,23.47
2022-08-27T19:42:56.108Z,23.44
2022-08-27T19:48:00.172Z,24.01
2022-08-27T19:53:02.969Z,23.87
2022-08-27T19:58:05.557Z,23.90
2022-08-27T20:03:09.554Z,24.06
2022-08-27T20:08:12.784Z,23.83
2022-08-27T20:13:15.984Z,22.47
2022-08-27T20:18:19.268Z,22.37
2022-08-27T20:23:22.104Z,22.76
2022-08-27T20:28:43.501Z,23.28
2022-08-27T20:33:46.925Z,23.76
2022-08-27T20:38:49.695Z,23.82
2022-08-27T20:43:52.533Z,23.89
2022-08-27T20:48:56.644Z,23.73
2022-08-27T20:53:59.129Z,23.81
2022-08-27T20:59:20.334Z,23.55
2022-08-27T21:04:22.858Z,23.55
2022-08-27T21:09:25.720Z,23.33
2022-08-27T21:14:28.446Z,23.51
2022-08-27T21:19:33.411Z,23.76
2022-08-27T21:24:36.036Z,23.76
2022-08-27T21:29:38.604Z,23.37
2022-08-27T21:34:41.944Z,23.49
2022-08-27T21:39:44.967Z,23.82
2022-08-27T21:44:47.451Z,23.66
2022-08-27T21:49:50.500Z,24.20
2022-08-27T21:54:53.091Z,24.20
2022-08-27T21:59:55.662Z,24.11
2022-08-27T22:04:58.234Z,23.66
2022-08-27T22:10:00.894Z,23.44
2022-08-27T22:15:05.134Z,23.35
2022-08-27T22:20:09.857Z,22.66
2022-08-27T22:25:13.401Z,22.00
2022-08-27T22:30:15.960Z,21.23
2022-08-27T22:35:20.069Z,21.63
2022-08-27T22:40:25.266Z,20.96
2022-08-27T22:45:29.302Z,20.56
2022-08-27T22:50:31.860Z,21.75
2022-08-27T22:55:34.638Z,21.54
2022-08-27T23:00:38.451Z,22.43
2022-08-27T23:05:41.810Z,22.55
2022-08-27T23:10:45.033Z,22.62
2022-08-27T23:15:47.592Z,21.81
2022-08-27T23:20:50.084Z,22.90
2022-08-27T23:26:11.138Z,23.36
2022-08-27T23:31:14.479Z,23.74
2022-08-27T23:36:17.032Z,22.93
2022-08-27T23:41:19.616Z,22.30
2022-08-27T23:46:22.205Z,23.03
2022-08-27T23:51:25.535Z,22.79
2022-08-27T23:56:29.930Z,23.06
